WEATHER DATA

TODAY
Time Temp. Dewp. Hum. Bar.
00:02 5.2 2.6 83 1004.9
00:13 5.2 2.7 84 1004.9
00:23 5.2 2.6 83 1004.9
00:33 5.1 2.5 83 1004.8
00:43 5 2.4 83 1004.8
00:54 5 2.4 83 1004.8
01:03 5 2.4 83 1004.7
01:13 5 2.2 82 1004.8
01:24 4.9 2.1 82 1004.8
01:34 4.9 2.3 83 1004.9
01:44 4.8 2 82 1005.2
01:54 4.9 2.1 82 1005.3
02:05 4.9 2.1 82 1005
02:15 4.9 2.1 82 1005
02:24 4.8 2 82 1005
02:34 4.8 2 82 1004.9
02:45 4.8 2 82 1004.9
02:55 4.7 1.9 82 1005
03:05 4.8 2.2 83 1005.2
03:15 4.8 2.2 83 1005.2
03:26 4.9 2.3 83 1005
03:35 4.9 2.3 83 1004.9
03:45 5 2.4 83 1005
03:56 4.9 2.3 83 1005.3
04:06 5 2.5 84 1005.2
04:16 5 2.5 84 1005.3
04:26 5 2.5 84 1005
04:37 5 2.5 84 1005.4
04:46 5 2.5 84 1005.3
04:56 5 2.5 84 1005.3
05:07 5 2.5 84 1005.2
05:17 5 2.5 84 1005.2
05:27 5 2.5 84 1004.9
05:37 5 2.7 85 1005
05:48 5 2.7 85 1005.2
05:57 5 2.7 85 1005.4
06:07 5 2.7 85 1005.4
06:17 5 2.7 85 1005.4
06:28 5.1 2.8 85 1005.6
06:38 5 2.7 85 1005.3
06:48 5 2.7 85 1005.4
06:58 5 2.7 85 1005.4
07:09 5.1 2.8 85 1005.5
07:18 5.1 2.8 85 1005.4
07:28 5.2 3.1 86 1005.6
07:39 5.3 3.2 86 1005.7
07:49 5.4 3.2 86 1006
07:59 5.5 3.3 86 1006
08:09 5.6 3.4 86 1006
08:20 5.7 3.5 86 1006.2
08:29 5.9 3.7 86 1006.2
08:39 6.1 4.1 87 1006.2
08:50 6.3 4.1 86 1006.4
09:00 6.5 4.3 86 1006.3
09:10 6.8 4.3 84 1006.4
09:20 7.1 4.6 84 1006.4
09:31 7.5 4.3 80 1006.4
09:40 7.9 3.9 76 1006.4
09:50 8.2 4 75 1006.6
10:01 8.4 5 79 1006.7
10:11 8.6 3.6 71 1006.6
10:21 8.9 1.3 59 1006.8
10:31 9.3 2.2 61 1006.7
10:42 9.5 2.1 60 1006.8
10:51 9.7 2.1 59 1006.4
11:01 9.9 2.5 60 1006.6
11:11 10.2 2.6 59 1006.3
11:22 10.4 2.7 59 1006.4
11:37 10.8 3.4 60 1006.6
11:47 10.9 3.4 60 1006.6
11:58 11 3.5 60 1006.6
12:07 11.1 3.9 61 1006.6
12:17 11.1 3.6 60 1006.4
12:27 11.1 4.3 63 1006.4
12:38 11.2 4 61 1006.3
12:48 11.3 4.3 62 1006.4
12:58 11.4 4.2 61 1006.3
13:09 11.5 4.5 62 1006.3
13:18 11.5 4.7 63 1006.4
13:28 11.6 4.3 61 1006.6
13:38 11.7 3.7 58 1006.3
13:49 11.8 4.1 59 1006.6
13:59 11.9 4.4 60 1006.6
14:09 11.8 4.5 61 1006.8
14:19 11.8 3.8 58 1006.8
14:29 11.7 4.4 61 1006.9
14:39 11.7 4.4 61 1007
14:49 11.6 4.6 62 1006.9
15:00 11.6 4.1 60 1007
15:10 11.6 3.9 59 1007.1
15:20 11.5 4 60 1007.1
15:30 11.4 4.2 61 1007.4
15:40 11.1 4.3 63 1007.4
15:50 10.9 4.6 65 1007.4
16:00 10.7 4.2 64 1007.4
16:11 10.6 3.9 63 1007.6
16:21 10.5 4.2 65 1007.6
16:31 10.4 4.3 66 1007.6
16:40 10.3 4.4 67 1007.8
16:51 10.3 4.4 67 1007.8
17:01 10.2 4.4 67 1007.8
17:11 10.3 4 65 1008
17:21 10.4 4.1 65 1008.1
17:32 10.5 4 64 1008.2
17:42 10.3 4.7 68 1008.3
17:52 10 4.8 70 1008.3
18:02 9.8 4.8 71 1008.5
18:12 9.7 4.9 72 1008.7
18:22 9.6 5 73 1008.8
18:32 9.5 5.1 74 1008.9
18:43 9.4 5.2 75 1009
18:52 9.3 5.1 75 1009.1
19:02 9.2 5 75 1009.2
19:13 9.1 4.9 75 1009.1
19:23 9.1 5.1 76 1009.2
19:33 9.1 5.1 76 1009.2
19:48 9 5 76 1009.2
19:58 8.9 5.1 77 1009.4
20:18 9 5.4 78 1009.5
20:29 9 5.4 78 1009.6
20:39 9.1 5.7 79 1009.7
20:48 9 5.4 78 1009.7
21:10 9.3 5.3 76 1009.9
21:16 9.5 4.5 71 1009.9
21:26 10 3.9 66 1010.1

DAY STATISTIC

2019-11-15
TEMPERATURE
AVERAGE
8.0
HIGH
11.9
13:59
LOW
4.7
02:55
PRESSURE
AVERAGE
1006.6
HIGH
1010.1
21:26
LOW
1004.7
01:03
DEWPOINT
AVERAGE
3.5
HIGH
5.7
20:39
LOW
1.3
10:21
HUMIDITY
AVERAGE
74
HIGH
87
08:39
LOW
58
13:38
TEMPERATURE (°C)
LOW
4.7
HIGH
11.9
AVERAGE
8.0
PRESSURE (hpa)
LOW
1004.7
HIGH
1010.1
AVERAGE
1006.6
DEVICE